Time;durP1;ratioP1;P1;durP2;ratioP2;P2;SDS_P1;SDS_P2;PMS_P1;PMS_P2;Temp;Humidity;BMP_temperature;BMP_pressure;BME280_temperature;BME280_humidity;BME280_pressure;Samples;Min_cycle;Max_cycle;Signal;HPM_P1;HPM_P2
2022/11/11 00:01:47;;;;;;;1999.90;999.90;;;10.10;99.90;;;;;;5114694;28;20240;-67
2022/11/11 00:04:12;;;;;;;1999.90;999.90;;;10.10;99.90;;;;;;5114297;28;20329;-67
2022/11/11 00:06:38;;;;;;;1999.90;999.90;;;10.10;99.90;;;;;;5113919;28;20656;-67
2022/11/11 00:09:03;;;;;;;1999.90;999.90;;;10.30;99.90;;;;;;5114028;28;20196;-68
2022/11/11 00:11:29;;;;;;;1999.90;999.90;;;10.20;99.90;;;;;;5113823;28;20282;-67
2022/11/11 00:13:54;;;;;;;1999.90;999.90;;;10.10;99.90;;;;;;5113956;28;20196;-67
2022/11/11 00:16:20;;;;;;;1999.90;999.90;;;10.10;99.90;;;;;;5113860;28;20739;-68
2022/11/11 00:27:04;;;;;;;1999.90;999.90;;;9.90;99.90;;;;;;5113758;28;20400;-67
2022/11/11 00:29:30;;;;;;;1999.90;999.90;;;9.90;99.90;;;;;;5113457;28;20913;-68
2022/11/11 00:34:39;;;;;;;1999.90;999.90;;;9.80;99.90;;;;;;5113483;28;20217;-67
2022/11/11 00:37:05;;;;;;;1999.90;999.90;;;9.80;99.90;;;;;;5113395;28;20404;-68
2022/11/11 00:39:31;;;;;;;1999.90;999.90;;;9.90;99.90;;;;;;5113507;28;20173;-67
2022/11/11 00:41:56;;;;;;;1999.90;999.90;;;9.90;99.90;;;;;;5113703;28;20177;-67
2022/11/11 00:44:22;;;;;;;1999.90;999.90;;;9.70;99.90;;;;;;5113246;28;20247;-68
2022/11/11 00:52:16;;;;;;;1999.90;999.90;;;9.80;99.90;;;;;;5113186;28;20506;-67
2022/11/11 00:54:41;;;;;;;1999.90;999.90;;;9.80;99.90;;;;;;5113120;28;20859;-67
2022/11/11 00:57:07;;;;;;;1999.90;999.90;;;9.70;99.90;;;;;;5112859;28;20165;-68
2022/11/11 00:59:33;;;;;;;1999.90;999.90;;;9.70;99.90;;;;;;5113011;28;20193;-67
2022/11/11 01:01:59;;;;;;;1999.90;999.90;;;9.70;99.90;;;;;;5113094;28;20172;-67
2022/11/11 01:04:24;;;;;;;1999.90;999.90;;;9.70;99.90;;;;;;5112561;28;20815;-67
2022/11/11 01:06:50;;;;;;;1999.90;999.90;;;9.70;99.90;;;;;;5112847;28;20177;-67
2022/11/11 01:09:15;;;;;;;1999.90;999.90;;;9.60;99.90;;;;;;5113226;28;20649;-67
2022/11/11 01:11:41;;;;;;;1999.90;999.90;;;9.60;99.90;;;;;;5112692;28;20195;-67
2022/11/11 01:14:06;;;;;;;1999.90;999.90;;;9.60;99.90;;;;;;5112826;28;20192;-67
2022/11/11 01:16:32;;;;;;;1999.90;999.90;;;9.40;99.90;;;;;;5112869;28;20167;-67
2022/11/11 01:18:57;;;;;;;1999.90;999.90;;;9.50;99.90;;;;;;5112693;28;20188;-67
2022/11/11 01:21:24;;;;;;;1999.90;999.90;;;9.50;99.90;;;;;;5112783;28;20171;-67
2022/11/11 01:23:52;;;;;;;1999.90;999.90;;;9.60;99.90;;;;;;5112843;28;20352;-67
2022/11/11 01:26:23;;;;;;;1999.90;999.90;;;9.50;99.90;;;;;;5112888;28;20442;-68
2022/11/11 01:28:51;;;;;;;1999.90;999.90;;;9.40;99.90;;;;;;5112511;28;20477;-67
2022/11/11 01:31:18;;;;;;;1999.90;999.90;;;9.40;99.90;;;;;;5112665;28;20407;-67
2022/11/11 01:33:44;;;;;;;1999.90;999.90;;;9.40;99.90;;;;;;5112599;28;20902;-68
2022/11/11 01:36:18;;;;;;;1999.90;999.90;;;9.30;99.90;;;;;;5112967;28;20414;-67
2022/11/11 01:38:48;;;;;;;1999.90;999.90;;;9.50;99.90;;;;;;5112623;28;20168;-67
2022/11/11 01:41:32;;;;;;;1999.90;999.90;;;9.40;99.90;;;;;;5112471;28;20492;-68
2022/11/11 01:44:37;;;;;;;1999.90;999.90;;;9.30;99.90;;;;;;5112924;28;20448;-67
2022/11/11 01:47:04;;;;;;;1999.90;999.90;;;9.30;99.90;;;;;;5112300;28;20412;-68
2022/11/11 01:49:47;;;;;;;1999.90;999.90;;;9.20;99.90;;;;;;5112374;28;20767;-68
2022/11/11 01:52:13;;;;;;;1999.90;999.90;;;9.20;99.90;;;;;;5112462;28;20552;-68
2022/11/11 01:54:49;;;;;;;1999.90;999.90;;;9.10;99.90;;;;;;5112302;28;20446;-68
2022/11/11 01:57:38;;;;;;;1999.90;999.90;;;9.00;99.90;;;;;;5112272;28;20254;-67
2022/11/11 02:00:07;;;;;;;1999.90;999.90;;;8.90;99.90;;;;;;5112369;28;20872;-67
2022/11/11 02:02:47;;;;;;;1999.90;999.90;;;8.80;99.90;;;;;;5112279;28;20453;-67
2022/11/11 02:08:03;;;;;;;1999.90;999.90;;;8.70;99.90;;;;;;5112228;28;20775;-67
2022/11/11 02:10:31;;;;;;;1999.90;999.90;;;8.60;99.90;;;;;;5112301;28;20506;-67
2022/11/11 02:15:41;;;;;;;1999.90;999.90;;;8.50;99.90;;;;;;5113649;28;20422;-67
2022/11/11 02:18:07;;;;;;;1999.90;999.90;;;8.50;99.90;;;;;;5116119;28;20413;-67
2022/11/11 02:20:36;;;;;;;1999.90;999.90;;;8.50;99.90;;;;;;5116123;28;20400;-67
2022/11/11 02:23:20;;;;;;;1999.90;999.90;;;8.50;99.90;;;;;;5116131;28;20199;-67
2022/11/11 02:25:47;;;;;;;1999.90;999.90;;;8.40;99.90;;;;;;5116228;28;20462;-68
2022/11/11 02:28:14;;;;;;;1999.90;999.90;;;8.30;99.90;;;;;;5115747;28;20405;-67
2022/11/11 02:30:40;;;;;;;1999.90;999.90;;;8.30;99.90;;;;;;5115977;28;20412;-67
2022/11/11 02:33:05;;;;;;;1999.90;999.90;;;8.30;99.90;;;;;;5115811;28;20545;-68
2022/11/11 02:35:34;;;;;;;1999.90;999.90;;;8.20;99.90;;;;;;5115822;28;20386;-67
2022/11/11 02:38:07;;;;;;;1999.90;999.90;;;8.20;99.90;;;;;;5115655;28;20171;-67
2022/11/11 02:41:55;;;;;;;1999.90;999.90;;;8.20;99.90;;;;;;5115859;28;20933;-68
2022/11/11 02:43:23;;;;;;;1999.90;999.90;;;8.20;99.90;;;;;;5115466;28;20782;-67
2022/11/11 02:45:49;;;;;;;1999.90;999.90;;;8.00;99.90;;;;;;5115691;28;20417;-68
2022/11/11 02:48:14;;;;;;;1999.90;999.90;;;8.00;99.90;;;;;;5115486;28;20231;-67
2022/11/11 02:50:40;;;;;;;1999.90;999.90;;;7.90;99.90;;;;;;5115633;28;20173;-67
2022/11/11 02:53:06;;;;;;;1999.90;999.90;;;7.90;99.90;;;;;;5115313;28;20250;-67
2022/11/11 02:55:31;;;;;;;1999.90;999.90;;;7.70;99.90;;;;;;5115515;28;20213;-67
2022/11/11 02:57:57;;;;;;;1999.90;999.90;;;7.70;99.90;;;;;;5115149;28;20535;-68
2022/11/11 03:00:23;;;;;;;1999.90;999.90;;;7.70;99.90;;;;;;5115501;28;20177;-67
2022/11/11 03:02:48;;;;;;;1999.90;999.90;;;7.80;99.90;;;;;;5115439;28;20166;-67
2022/11/11 03:05:14;;;;;;;1999.90;999.90;;;7.90;99.90;;;;;;5115270;28;20194;-67
2022/11/11 03:07:39;;;;;;;1999.90;999.90;;;8.00;99.90;;;;;;5115022;28;20175;-67
2022/11/11 03:10:05;;;;;;;1999.90;999.90;;;8.10;99.90;;;;;;5115499;28;20173;-67
2022/11/11 03:12:31;;;;;;;1999.90;999.90;;;8.10;99.90;;;;;;5115102;28;20268;-68
2022/11/11 03:14:56;;;;;;;1999.90;999.90;;;8.20;99.90;;;;;;5115154;28;20435;-67
2022/11/11 03:17:40;;;;;;;1999.90;999.90;;;8.20;99.90;;;;;;5114960;28;20174;-67
2022/11/11 03:23:13;;;;;;;1999.90;999.90;;;8.30;99.90;;;;;;5115209;28;20414;-67
2022/11/11 03:25:41;;;;;;;1999.90;999.90;;;8.40;99.90;;;;;;5114908;28;20422;-68
2022/11/11 03:28:14;;;;;;;1999.90;999.90;;;8.40;99.90;;;;;;5113558;28;21140;-67
2022/11/11 03:30:42;;;;;;;1999.90;999.90;;;8.40;99.90;;;;;;5114886;28;20818;-67
2022/11/11 03:33:09;;;;;;;1999.90;999.90;;;8.40;99.90;;;;;;5114800;28;20500;-68
2022/11/11 03:35:35;;;;;;;1999.90;999.90;;;8.40;99.90;;;;;;5114637;28;20428;-67
2022/11/11 03:40:47;;;;;;;1999.90;999.90;;;8.50;99.90;;;;;;5115017;28;20405;-68
2022/11/11 03:43:15;;;;;;;1999.90;999.90;;;8.50;99.90;;;;;;5114599;28;20409;-67
2022/11/11 03:45:41;;;;;;;1999.90;999.90;;;8.40;99.90;;;;;;5114659;28;20511;-68
2022/11/11 03:48:07;;;;;;;1999.90;999.90;;;8.40;99.90;;;;;;5114225;28;20416;-67
2022/11/11 03:50:33;;;;;;;1999.90;999.90;;;8.40;99.90;;;;;;5114574;28;20998;-67
2022/11/11 03:52:59;;;;;;;1999.90;999.90;;;8.40;99.90;;;;;;5114237;28;20616;-67
2022/11/11 03:55:25;;;;;;;1999.90;999.90;;;8.30;99.90;;;;;;5114212;28;20534;-68
2022/11/11 03:57:51;;;;;;;1999.90;999.90;;;8.40;99.90;;;;;;5113993;28;20205;-68
2022/11/11 04:00:20;;;;;;;1999.90;999.90;;;8.40;99.90;;;;;;5114271;28;20409;-67
2022/11/11 04:11:11;;;;;;;1999.90;999.90;;;8.40;99.90;;;;;;5114354;28;20397;-67
2022/11/11 04:16:25;;;;;;;1999.90;999.90;;;8.40;99.90;;;;;;5114251;28;20829;-68
2022/11/11 04:21:44;;;;;;;1999.90;999.90;;;8.40;99.90;;;;;;5114154;28;20169;-67
2022/11/11 04:27:02;;;;;;;1999.90;999.90;;;8.40;99.90;;;;;;5113774;28;20907;-67
2022/11/11 04:29:28;;;;;;;1999.90;999.90;;;8.40;99.90;;;;;;5113624;28;20409;-67
2022/11/11 04:34:44;;;;;;;1999.90;999.90;;;8.30;99.90;;;;;;5113603;28;20431;-67
2022/11/11 04:37:10;;;;;;;1999.90;999.90;;;8.40;99.90;;;;;;5113342;28;20755;-68
2022/11/11 04:42:20;;;;;;;1999.90;999.90;;;8.30;99.90;;;;;;5113855;28;20404;-67
2022/11/11 04:47:30;;;;;;;1999.90;999.90;;;8.30;99.90;;;;;;5113332;28;20177;-68
2022/11/11 04:49:56;;;;;;;1999.90;999.90;;;8.20;99.90;;;;;;5113208;28;20408;-67
2022/11/11 04:52:28;;;;;;;1999.90;999.90;;;8.20;99.90;;;;;;5113237;28;20216;-67
2022/11/11 04:57:44;;;;;;;1999.90;999.90;;;8.20;99.90;;;;;;5113278;28;20425;-67
2022/11/11 05:00:15;;;;;;;1999.90;999.90;;;8.10;99.90;;;;;;5113031;28;20545;-67
2022/11/11 05:05:26;;;;;;;1999.90;999.90;;;8.10;99.90;;;;;;5112965;28;20468;-67
2022/11/11 05:10:36;;;;;;;1999.90;999.90;;;8.10;99.90;;;;;;5113223;28;20768;-67
2022/11/11 05:21:28;;;;;;;1999.90;999.90;;;8.10;99.90;;;;;;5113012;28;20431;-67
2022/11/11 05:26:38;;;;;;;1999.90;999.90;;;8.10;99.90;;;;;;5112525;28;20477;-67
2022/11/11 05:29:03;;;;;;;1999.90;999.90;;;8.10;99.90;;;;;;5112636;28;20407;-67
2022/11/11 05:31:29;;;;;;;1999.90;999.90;;;8.10;99.90;;;;;;5112685;28;20198;-68
2022/11/11 05:33:55;;;;;;;1999.90;999.90;;;8.00;99.90;;;;;;5112662;28;20236;-67
2022/11/11 05:36:21;;;;;;;1999.90;999.90;;;8.10;99.90;;;;;;5112467;28;20588;-67
2022/11/11 05:38:46;;;;;;;1999.90;999.90;;;8.10;99.90;;;;;;5112389;28;20406;-67
2022/11/11 05:41:12;;;;;;;1999.90;999.90;;;8.10;99.90;;;;;;5112634;28;20169;-67
2022/11/11 05:43:40;;;;;;;1999.90;999.90;;;8.10;99.90;;;;;;5112426;28;20205;-68
2022/11/11 05:46:06;;;;;;;1999.90;999.90;;;8.10;99.90;;;;;;5061325;28;20584;-67
2022/11/11 05:48:32;;;;;;;1999.90;999.90;;;8.10;99.90;;;;;;5112314;28;20501;-67
2022/11/11 05:50:58;;;;;;;1999.90;999.90;;;8.00;99.90;;;;;;5116437;28;20241;-68
2022/11/11 05:53:27;;;;;;;1999.90;999.90;;;8.00;99.90;;;;;;5118954;28;20874;-68
2022/11/11 05:55:53;;;;;;;1999.90;999.90;;;8.00;99.90;;;;;;5119128;28;20404;-68
2022/11/11 05:58:19;;;;;;;1999.90;999.90;;;8.00;99.90;;;;;;5118964;28;20440;-67
2022/11/11 06:00:46;;;;;;;1999.90;999.90;;;8.00;99.90;;;;;;5119210;28;20165;-67
2022/11/11 06:03:12;;;;;;;1999.90;999.90;;;8.00;99.90;;;;;;5119173;28;20483;-67
2022/11/11 06:05:37;;;;;;;1999.90;999.90;;;8.00;99.90;;;;;;5119228;28;20570;-68
2022/11/11 06:08:04;;;;;;;1999.90;999.90;;;8.10;99.90;;;;;;5118893;28;20224;-67
2022/11/11 06:10:29;;;;;;;1999.90;999.90;;;8.10;99.90;;;;;;5119068;28;20428;-67
2022/11/11 06:13:03;;;;;;;1999.90;999.90;;;8.10;99.90;;;;;;5119037;28;20489;-68
2022/11/11 06:15:29;;;;;;;1999.90;999.90;;;8.10;99.90;;;;;;5119243;28;20183;-67
2022/11/11 06:17:55;;;;;;;1999.90;999.90;;;8.10;99.90;;;;;;5118724;28;20400;-67
2022/11/11 06:20:21;;;;;;;1999.90;999.90;;;8.10;99.90;;;;;;5118823;28;20405;-68
2022/11/11 06:22:55;;;;;;;1999.90;999.90;;;8.20;99.90;;;;;;5118971;28;20170;-67
2022/11/11 06:28:17;;;;;;;1999.90;999.90;;;8.20;99.90;;;;;;5118971;28;20397;-68
2022/11/11 06:30:43;;;;;;;1999.90;999.90;;;8.20;99.90;;;;;;5118879;28;20471;-67
2022/11/11 06:33:10;;;;;;;1999.90;999.90;;;8.20;99.90;;;;;;5118729;28;20957;-67
2022/11/11 06:35:37;;;;;;;1999.90;999.90;;;8.20;99.90;;;;;;5118673;28;20423;-68
2022/11/11 06:38:04;;;;;;;1999.90;999.90;;;8.20;99.90;;;;;;5118577;28;20401;-67
2022/11/11 06:40:30;;;;;;;1999.90;999.90;;;8.40;99.90;;;;;;5118886;28;20391;-67
2022/11/11 06:42:59;;;;;;;1999.90;999.90;;;8.30;99.90;;;;;;5118960;28;20437;-67
2022/11/11 06:45:26;;;;;;;1999.90;999.90;;;8.30;99.90;;;;;;5118714;28;20423;-67
2022/11/11 06:47:52;;;;;;;1999.90;999.90;;;8.30;99.90;;;;;;5118371;28;20407;-67
2022/11/11 06:50:18;;;;;;;1999.90;999.90;;;8.30;99.90;;;;;;5118732;28;20410;-67
2022/11/11 06:52:44;;;;;;;1999.90;999.90;;;8.30;99.90;;;;;;5118628;28;20189;-67
2022/11/11 06:55:09;;;;;;;1999.90;999.90;;;8.40;99.90;;;;;;5118579;28;20576;-67
2022/11/11 06:57:35;;;;;;;1999.90;999.90;;;8.30;99.90;;;;;;5118299;28;20173;-67
2022/11/11 07:00:03;;;;;;;1999.90;999.90;;;8.30;99.90;;;;;;5118644;28;20247;-67
2022/11/11 07:02:28;;;;;;;1999.90;999.90;;;8.40;99.90;;;;;;5116538;28;20408;-68
2022/11/11 07:04:54;;;;;;;1999.90;999.90;;;8.30;99.90;;;;;;5115298;28;20973;-67
2022/11/11 07:07:20;;;;;;;1999.90;999.90;;;8.40;99.90;;;;;;5115091;28;20189;-67
2022/11/11 07:09:45;;;;;;;1999.90;999.90;;;8.30;99.90;;;;;;5115443;28;20171;-67
2022/11/11 07:12:11;;;;;;;1999.90;999.90;;;8.20;99.90;;;;;;5115267;28;20192;-67
2022/11/11 07:14:36;;;;;;;1999.90;999.90;;;8.20;99.90;;;;;;5115122;28;20712;-68
2022/11/11 07:17:02;;;;;;;1999.90;999.90;;;8.10;99.90;;;;;;5114868;28;20279;-67
2022/11/11 07:19:27;;;;;;;1999.90;999.90;;;8.20;99.90;;;;;;5114962;28;20238;-68
2022/11/11 07:21:53;;;;;;;1999.90;999.90;;;8.10;99.90;;;;;;5115025;28;20519;-67
2022/11/11 07:24:18;;;;;;;1999.90;999.90;;;8.20;99.90;;;;;;5114957;28;20184;-67
2022/11/11 07:26:44;;;;;;;1999.90;999.90;;;8.10;99.90;;;;;;5115155;28;20174;-67
2022/11/11 07:29:13;;;;;;;1999.90;999.90;;;8.10;99.90;;;;;;5115219;28;20863;-68
2022/11/11 07:31:38;;;;;;;1999.90;999.90;;;8.10;99.90;;;;;;5114894;28;20178;-68
2022/11/11 07:34:04;;;;;;;1999.90;999.90;;;8.10;99.90;;;;;;5114814;28;20422;-67
2022/11/11 07:36:29;;;;;;;1999.90;999.90;;;8.10;99.90;;;;;;5114606;28;20165;-68
2022/11/11 07:38:55;;;;;;;1999.90;999.90;;;8.20;99.90;;;;;;5114908;28;20623;-67
2022/11/11 07:41:21;;;;;;;1999.90;999.90;;;8.40;99.90;;;;;;5114635;28;20168;-67
2022/11/11 07:43:46;;;;;;;1999.90;999.90;;;8.40;99.90;;;;;;5114520;28;20191;-67
2022/11/11 07:46:12;;;;;;;1999.90;999.90;;;8.50;99.90;;;;;;5114446;28;20409;-67
2022/11/11 07:48:38;;;;;;;1999.90;999.90;;;8.40;99.90;;;;;;5096308;28;20166;-67
2022/11/11 07:51:03;;;;;;;1999.90;999.90;;;8.40;99.90;;;;;;5114490;28;20246;-67
2022/11/11 07:53:29;;;;;;;1999.90;999.90;;;8.50;99.90;;;;;;5114220;28;20678;-67
2022/11/11 07:55:55;;;;;;;1999.90;999.90;;;8.60;99.90;;;;;;5114868;28;20651;-68
2022/11/11 07:58:20;;;;;;;1999.90;999.90;;;8.70;99.90;;;;;;5114094;28;20175;-67
2022/11/11 08:00:46;;;;;;;1999.90;999.90;;;8.80;99.90;;;;;;5114293;28;20535;-67
2022/11/11 08:03:11;;;;;;;1999.90;999.90;;;8.80;99.90;;;;;;5114733;28;20201;-68
2022/11/11 08:05:37;;;;;;;1999.90;999.90;;;8.80;99.90;;;;;;5114053;28;20197;-68
2022/11/11 08:08:04;;;;;;;1999.90;999.90;;;8.80;99.90;;;;;;5113948;28;20170;-67
2022/11/11 08:10:30;;;;;;;1999.90;999.90;;;8.90;99.90;;;;;;5113942;28;20175;-67
2022/11/11 08:15:40;;;;;;;1999.90;999.90;;;9.00;99.90;;;;;;5114122;28;20415;-67
2022/11/11 08:18:06;;;;;;;1999.90;999.90;;;9.10;99.90;;;;;;5115582;28;20406;-68
2022/11/11 08:20:32;;;;;;;1999.90;999.90;;;9.20;99.90;;;;;;5113989;28;20169;-67
2022/11/11 08:22:58;;;;;;;1999.90;999.90;;;9.30;99.90;;;;;;5114226;28;20533;-68
2022/11/11 08:25:24;;;;;;;1999.90;999.90;;;9.30;99.90;;;;;;5113847;28;20197;-67
2022/11/11 08:27:59;;;;;;;1999.90;999.90;;;9.30;99.90;;;;;;5113879;28;20168;-67
2022/11/11 08:30:25;;;;;;;1999.90;999.90;;;9.40;99.90;;;;;;5113965;28;20410;-67
2022/11/11 08:32:57;;;;;;;1999.90;999.90;;;9.40;99.90;;;;;;5113629;28;20447;-67
2022/11/11 08:35:23;;;;;;;1999.90;999.90;;;9.40;99.90;;;;;;5113473;28;20189;-68
2022/11/11 08:37:48;;;;;;;1999.90;999.90;;;9.40;99.90;;;;;;5113248;28;20395;-67
2022/11/11 08:40:15;;;;;;;1999.90;999.90;;;9.40;99.90;;;;;;5113821;28;20173;-68
2022/11/11 08:42:41;;;;;;;1999.90;999.90;;;9.50;99.90;;;;;;5113580;28;20180;-67
2022/11/11 08:45:08;;;;;;;1999.90;999.90;;;9.50;99.90;;;;;;5113462;28;20922;-68
2022/11/11 08:47:34;;;;;;;1999.90;999.90;;;9.50;99.90;;;;;;5113588;28;20228;-67
2022/11/11 08:50:00;;;;;;;1999.90;999.90;;;9.50;99.90;;;;;;5113398;28;20906;-67
2022/11/11 08:52:26;;;;;;;1999.90;999.90;;;9.60;99.90;;;;;;5113393;28;20456;-68
2022/11/11 08:54:51;;;;;;;1999.90;999.90;;;9.60;99.90;;;;;;5113535;28;20211;-67
2022/11/11 08:57:17;;;;;;;1999.90;999.90;;;9.70;99.90;;;;;;5113013;28;20208;-68
2022/11/11 08:59:43;;;;;;;1999.90;999.90;;;9.70;99.90;;;;;;5113057;28;20528;-68
2022/11/11 09:02:11;;;;;;;1999.90;999.90;;;9.90;99.90;;;;;;5113142;28;20413;-68
2022/11/11 09:04:37;;;;;;;1999.90;999.90;;;9.80;99.90;;;;;;5113329;28;20185;-67
2022/11/11 09:07:03;;;;;;;1999.90;999.90;;;9.90;99.90;;;;;;5112782;28;20947;-68
2022/11/11 09:09:29;;;;;;;1999.90;999.90;;;9.90;99.90;;;;;;5112867;28;20487;-68
2022/11/11 09:11:54;;;;;;;1999.90;999.90;;;9.90;99.90;;;;;;5112858;28;20195;-67
2022/11/11 09:14:20;;;;;;;1999.90;999.90;;;10.00;99.90;;;;;;5112805;28;20182;-68
2022/11/11 09:16:46;;;;;;;1999.90;999.90;;;10.10;99.90;;;;;;5113011;28;20243;-68
2022/11/11 09:19:11;;;;;;;1999.90;999.90;;;10.20;99.90;;;;;;5113361;28;20433;-67
2022/11/11 09:21:37;;;;;;;1999.90;999.90;;;10.30;99.90;;;;;;5112895;28;20529;-68
2022/11/11 09:24:03;;;;;;;1999.90;999.90;;;10.40;99.90;;;;;;5112910;28;20192;-68
2022/11/11 09:26:28;;;;;;;1999.90;999.90;;;10.40;99.90;;;;;;5112132;28;20558;-68
2022/11/11 09:28:54;;;;;;;1999.90;999.90;;;10.60;99.90;;;;;;5112544;28;20170;-68
2022/11/11 09:31:21;;;;;;;1999.90;999.90;;;10.60;99.90;;;;;;5112741;28;20225;-67
2022/11/11 09:33:47;;;;;;;1999.90;999.90;;;10.70;99.90;;;;;;5112680;28;20204;-68
2022/11/11 09:36:12;;;;;;;1999.90;999.90;;;10.80;99.90;;;;;;5112451;28;20836;-67
2022/11/11 09:38:38;;;;;;;1999.90;999.90;;;10.90;99.90;;;;;;5112353;28;20189;-68
2022/11/11 09:41:20;;;;;;;1999.90;999.90;;;10.90;99.90;;;;;;5110543;28;20250;-68
2022/11/11 09:43:54;;;;;;;1999.90;999.90;;;11.10;99.90;;;;;;5108311;28;20216;-68
2022/11/11 09:46:44;;;;;;;1999.90;999.90;;;11.20;99.90;;;;;;5094268;28;20428;-68
2022/11/11 09:49:38;;;;;;;1999.90;999.90;;;11.40;99.90;;;;;;5092612;28;20400;-68
2022/11/11 09:52:10;;;;;;;1999.90;999.90;;;11.50;99.90;;;;;;5091909;28;20447;-68
2022/11/11 09:54:53;;;;;;;1999.90;999.90;;;11.60;99.90;;;;;;5093506;28;20485;-69
2022/11/11 09:57:39;;;;;;;1999.90;999.90;;;11.70;99.90;;;;;;5095959;28;20835;-67
2022/11/11 10:00:27;;;;;;;1999.90;999.90;;;11.80;99.90;;;;;;5089495;28;20413;-67
2022/11/11 10:02:56;;;;;;;1999.90;999.90;;;11.90;99.90;;;;;;5089606;28;20416;-68
2022/11/11 10:05:38;;;;;;;1999.90;999.90;;;11.90;99.90;;;;;;5087459;28;20432;-68
2022/11/11 10:08:21;;;;;;;1999.90;999.90;;;12.10;99.90;;;;;;5087256;28;21038;-68
2022/11/11 10:10:50;;;;;;;1999.90;999.90;;;12.20;99.90;;;;;;5087216;28;20409;-68
2022/11/11 10:13:18;;;;;;;1999.90;999.90;;;12.30;99.90;;;;;;5087098;28;20455;-68
2022/11/11 10:16:12;;;;;;;1999.90;999.90;;;12.50;99.90;;;;;;5087490;28;20922;-68
2022/11/11 10:19:16;;;;;;;1999.90;999.90;;;12.60;99.90;;;;;;5087662;28;20414;-68
2022/11/11 10:21:48;;;;;;;1999.90;999.90;;;12.70;99.90;;;;;;5087144;28;20410;-68
2022/11/11 10:24:20;;;;;;;1999.90;999.90;;;12.80;99.90;;;;;;5088512;28;21017;-68
2022/11/11 10:26:47;;;;;;;1999.90;999.90;;;12.80;99.90;;;;;;5089788;28;20494;-68
2022/11/11 10:29:17;;;;;;;1999.90;999.90;;;13.00;99.90;;;;;;5090983;28;20437;-67
2022/11/11 10:31:55;;;;;;;1999.90;999.90;;;13.00;99.90;;;;;;5091315;28;20431;-68
2022/11/11 10:34:21;;;;;;;1999.90;999.90;;;13.20;99.90;;;;;;5090643;28;20562;-69
2022/11/11 10:36:53;;;;;;;1999.90;999.90;;;13.20;99.90;;;;;;5092094;28;20481;-69
2022/11/11 10:39:30;;;;;;;1999.90;999.90;;;13.30;99.90;;;;;;5094939;28;20406;-69
2022/11/11 10:41:56;;;;;;;1999.90;999.90;;;13.30;99.90;;;;;;5094550;28;20436;-70
2022/11/11 10:44:25;;;;;;;1999.90;999.90;;;13.40;99.90;;;;;;5097332;28;20425;-70
2022/11/11 10:47:04;;;;;;;1999.90;999.90;;;13.60;99.90;;;;;;5096491;28;20169;-69
2022/11/11 10:49:33;;;;;;;1999.90;999.90;;;13.70;99.90;;;;;;5094423;28;20440;-69
2022/11/11 10:52:12;;;;;;;1999.90;999.90;;;13.80;99.90;;;;;;5094728;28;20445;-68
2022/11/11 10:54:43;;;;;;;1999.90;999.90;;;13.80;99.90;;;;;;5094707;28;20495;-67
2022/11/11 10:57:37;;;;;;;1999.90;999.90;;;13.90;99.90;;;;;;5094206;28;20475;-67
2022/11/11 11:00:13;;;;;;;1999.90;999.90;;;14.00;99.90;;;;;;5088800;28;20413;-67
2022/11/11 11:03:06;;;;;;;1999.90;999.90;;;14.10;99.90;;;;;;5092593;28;20418;-67
2022/11/11 11:05:46;;;;;;;1999.90;999.90;;;14.20;99.90;;;;;;5094067;28;20499;-67
2022/11/11 11:08:23;;;;;;;1999.90;999.90;;;14.30;99.90;;;;;;5094233;28;20775;-66
2022/11/11 11:11:01;;;;;;;1999.90;999.90;;;14.40;99.90;;;;;;5094128;28;20399;-68
2022/11/11 11:13:30;;;;;;;1999.90;999.90;;;14.60;99.90;;;;;;5094321;28;20560;-67
2022/11/11 11:16:02;;;;;;;1999.90;999.90;;;14.80;99.90;;;;;;5094227;28;20420;-67
2022/11/11 11:18:28;;;;;;;1999.90;999.90;;;15.20;99.90;;;;;;5093665;28;20470;-67
2022/11/11 11:20:55;;;;;;;1999.90;999.90;;;15.50;99.90;;;;;;5094852;28;20405;-67
2022/11/11 11:23:43;;;;;;;1999.90;999.90;;;15.90;99.90;;;;;;5094987;28;20586;-67
2022/11/11 11:26:12;;;;;;;1999.90;999.90;;;16.30;99.90;;;;;;5093502;28;20460;-67
2022/11/11 11:29:00;;;;;;;1999.90;999.90;;;16.60;99.90;;;;;;5093549;28;20928;-67
2022/11/11 11:31:36;;;;;;;1999.90;999.90;;;17.20;99.90;;;;;;5094026;28;20411;-68
2022/11/11 11:34:02;;;;;;;1999.90;999.90;;;17.70;99.90;;;;;;5093555;28;20429;-68
2022/11/11 11:36:28;;;;;;;1999.90;999.90;;;18.20;99.90;;;;;;5093735;28;20389;-68
2022/11/11 11:38:54;;;;;;;1999.90;999.90;;;18.50;99.90;;;;;;5093360;28;20783;-68
2022/11/11 11:41:49;;;;;;;1999.90;999.90;;;18.90;99.90;;;;;;5093382;28;20173;-67
2022/11/11 11:44:27;;;;;;;1999.90;999.90;;;19.20;99.90;;;;;;5094158;28;20229;-67
2022/11/11 11:47:33;;;;;;;1999.90;999.90;;;19.60;99.90;;;;;;5093689;28;20402;-67
2022/11/11 11:50:14;;;;;;;1999.90;999.90;;;19.90;99.90;;;;;;5069880;28;20412;-67
2022/11/11 11:52:48;;;;;;;1999.90;999.90;;;20.40;99.90;;;;;;5093639;28;20987;-67
2022/11/11 11:55:27;;;;;;;1999.90;999.90;;;20.90;99.90;;;;;;5092918;28;20519;-68
2022/11/11 11:57:53;;;;;;;1999.90;999.90;;;21.50;99.90;;;;;;5092920;28;20400;-67
2022/11/11 12:00:25;;;;;;;1999.90;999.90;;;21.90;96.20;;;;;;5093534;28;20502;-68
2022/11/11 12:02:56;;;;;;;1999.90;999.90;;;22.30;94.00;;;;;;5092925;28;20407;-68
2022/11/11 12:05:44;;;;;;;1999.90;999.90;;;22.70;90.90;;;;;;5093419;28;20798;-68
2022/11/11 12:08:48;;;;;;;1999.90;999.90;;;23.00;86.90;;;;;;5093177;28;20743;-67
2022/11/11 12:11:58;;;;;;;1999.90;999.90;;;23.00;76.20;;;;;;5092986;28;20803;-68
2022/11/11 12:14:40;;;;;;;1999.90;999.90;;;22.80;75.90;;;;;;5058947;28;20444;-67
2022/11/11 12:17:09;;;;;;;1999.90;999.90;;;22.60;72.50;;;;;;5093299;28;20738;-68
2022/11/11 12:19:53;;;;;;;1999.90;999.90;;;22.20;76.90;;;;;;5093441;28;20468;-67
2022/11/11 12:22:38;;;;;;;1999.90;999.90;;;22.10;73.60;;;;;;5093025;28;20392;-67
2022/11/11 12:25:51;;;;;;;1999.90;999.90;;;21.90;68.70;;;;;;5092914;28;20454;-67
2022/11/11 12:28:42;;;;;;;1999.90;999.90;;;21.90;71.80;;;;;;5029905;28;20539;-67
2022/11/11 12:31:13;;;;;;;1999.90;999.90;;;21.90;71.00;;;;;;5093443;28;20726;-68
2022/11/11 12:34:02;;;;;;;1999.90;999.90;;;22.00;71.90;;;;;;5092901;28;20502;-67
2022/11/11 12:37:08;;;;;;;1999.90;999.90;;;22.20;70.80;;;;;;5092640;28;20801;-68
2022/11/11 12:39:52;;;;;;;1999.90;999.90;;;22.50;70.70;;;;;;5092287;28;20407;-67
2022/11/11 12:42:41;;;;;;;1999.90;999.90;;;22.70;66.70;;;;;;5092955;28;20395;-67
2022/11/11 12:45:17;;;;;;;1999.90;999.90;;;22.90;62.10;;;;;;5092878;28;20465;-67
2022/11/11 12:48:01;;;;;;;1999.90;999.90;;;23.20;60.40;;;;;;5091678;28;20460;-68
2022/11/11 12:51:21;;;;;;;1999.90;999.90;;;23.40;57.30;;;;;;5092696;28;20462;-67
2022/11/11 12:53:54;;;;;;;1999.90;999.90;;;23.80;56.40;;;;;;5067466;28;20478;-67
2022/11/11 12:56:42;;;;;;;1999.90;999.90;;;24.00;50.90;;;;;;5092130;28;20415;-67
2022/11/11 12:59:19;;;;;;;1999.90;999.90;;;24.00;52.50;;;;;;5092723;28;20427;-67
2022/11/11 13:01:47;;;;;;;1999.90;999.90;;;24.10;48.90;;;;;;5092390;28;20416;-68
2022/11/11 13:04:48;;;;;;;1999.90;999.90;;;24.10;48.70;;;;;;5091895;28;20514;-67
2022/11/11 13:07:31;;;;;;;1999.90;999.90;;;24.20;48.30;;;;;;5091856;28;20438;-67
2022/11/11 13:10:02;;;;;;;1999.90;999.90;;;24.10;47.30;;;;;;5092037;28;20392;-68
2022/11/11 13:12:53;;;;;;;1999.90;999.90;;;24.00;49.00;;;;;;5092080;28;20915;-68
2022/11/11 13:15:24;;;;;;;1999.90;999.90;;;24.20;47.80;;;;;;5060748;28;20424;-67
2022/11/11 13:17:50;;;;;;;1999.90;999.90;;;24.70;46.50;;;;;;5090940;28;20379;-69
2022/11/11 13:20:34;;;;;;;1999.90;999.90;;;25.00;43.60;;;;;;5091992;28;20414;-67
2022/11/11 13:22:59;;;;;;;1999.90;999.90;;;25.20;40.00;;;;;;5092040;28;20400;-68
2022/11/11 13:25:29;;;;;;;1999.90;999.90;;;25.50;37.10;;;;;;5091804;28;20772;-68
2022/11/11 13:28:07;;;;;;;1999.90;999.90;;;25.60;36.00;;;;;;5091175;28;20162;-70
2022/11/11 13:31:10;;;;;;;1999.90;999.90;;;25.70;34.30;;;;;;5090628;28;20719;-67
2022/11/11 13:33:38;;;;;;;1999.90;999.90;;;25.60;35.10;;;;;;5091218;28;20492;-67
2022/11/11 13:36:08;;;;;;;1999.90;999.90;;;25.40;33.00;;;;;;5091551;28;20852;-69
2022/11/11 13:38:47;;;;;;;1999.90;999.90;;;25.30;30.50;;;;;;5091356;28;20384;-67
2022/11/11 13:41:25;;;;;;;1999.90;999.90;;;25.00;31.70;;;;;;5091345;28;20891;-67
2022/11/11 13:43:53;;;;;;;1999.90;999.90;;;24.80;32.90;;;;;;5091646;28;20442;-68